Vilas, Indiana
Current Conditions -  °F | °C
As of 11:53 AM on Thursday 30 Oct 2014 (Local Time) from KBMG Reporting Station
Clear Clear  
Wind Chill: 48°   Ceiling: Unl
Heat Index: 48°   Visibility: 10mi
Dew Point: 33°   Wind: 3mph
Humidity: 56%   Direction: 160°SSE
Pressure: 30.16"   Gusts: NA
Location:  39.3008°N, 86.8112°W
Report Text: KBMG 301553Z 16003KT 10SM CLR 09/01 A3016 RMK AO2 SLP214 T00890006
Loading
Personal Weather Stations






























Interactive Weather Map
Tropical Storm Tracking
New forecast layout! Learn more

10-Day Weather Forecast

Advertisements
Track Severe Weather on mobile